Time;durP1;ratioP1;P1;durP2;ratioP2;P2;SDS_P1;SDS_P2;PMS_P1;PMS_P2;Temp;Humidity;BMP_temperature;BMP_pressure;BME280_temperature;BME280_humidity;BME280_pressure;Samples;Min_cycle;Max_cycle;Signal;HPM_P1;HPM_P2
2022/07/08 00:02:04;;;;;;;;;;;;;;;;;;5018867;28;20003;-25
2022/07/08 00:04:31;;;;;;;;;;;;;;;;;;5018904;28;19924;-26
2022/07/08 00:06:58;;;;;;;;;;;;;;;;;;5001576;28;19921;-25
2022/07/08 00:09:26;;;;;;;;;;;;;;;;;;5001662;28;19913;-26
2022/07/08 00:11:53;;;;;;;;;;;;;;;;;;5018805;28;20311;-25
2022/07/08 00:14:20;;;;;;;;;;;;;;;;;;5018741;28;20359;-26
2022/07/08 00:16:48;;;;;;;;;;;;;;;;;;5018562;28;19910;-25
2022/07/08 00:21:59;;;;;;;;;;;;;;;;;;5020168;28;19920;-26
2022/07/08 00:24:27;;;;;;;;;;;;;;;;;;5019045;28;19978;-26
2022/07/08 00:26:54;;;;;;;;;;;;;;;;;;5019163;28;19924;-25
2022/07/08 00:29:21;;;;;;;;;;;;;;;;;;5018952;28;19913;-26
2022/07/08 00:31:48;;;;;;;;;;;;;;;;;;5019037;28;20001;-25
2022/07/08 00:34:16;;;;;;;;;;;;;;;;;;5019018;28;19913;-25
2022/07/08 00:39:35;;;;;;;;;;;;;;;;;;5019247;28;20303;-25
2022/07/08 00:44:52;;;;;;;;;;;;;;;;;;5019268;28;19939;-26
2022/07/08 00:47:19;;;;;;;;;;;;;;;;;;5001216;28;19913;-25
2022/07/08 00:52:41;;;;;;;;;;;;;;;;;;5017720;28;19924;-25
2022/07/08 00:55:15;;;;;;;;;;;;;;;;;;5019022;28;20004;-25
2022/07/08 00:57:42;;;;;;;;;;;;;;;;;;5018469;28;19917;-25
2022/07/08 01:00:09;;;;;;;;;;;;;;;;;;5018623;28;19956;-25
2022/07/08 01:02:41;;;;;;;;;;;;;;;;;;5017975;28;19940;-23
2022/07/08 01:05:08;;;;;;;;;;;;;;;;;;5018440;28;19913;-23
2022/07/08 01:10:26;;;;;;;;;;;;;;;;;;5018842;28;19955;-23
2022/07/08 01:15:37;;;;;;;;;;;;;;;;;;5017935;28;19971;-23
2022/07/08 01:18:04;;;;;;;;;;;;;;;;;;5018279;28;19924;-22
2022/07/08 01:20:32;;;;;;;;;;;;;;;;;;5018414;28;19917;-22
2022/07/08 01:28:35;;;;;;;;;;;;;;;;;;5019273;28;19920;-22
2022/07/08 01:31:01;;;;;;;;;;;;;;;;;;5019048;28;19981;-22
2022/07/08 01:36:13;;;;;;;;;;;;;;;;;;5018340;28;19980;-23
2022/07/08 01:38:41;;;;;;;;;;;;;;;;;;5018181;28;19961;-23
2022/07/08 01:46:46;;;;;;;;;;;;;;;;;;5018444;28;19940;-23
2022/07/08 01:52:05;;;;;;;;;;;;;;;;;;5017781;28;20283;-23
2022/07/08 01:57:24;;;;;;;;;;;;;;;;;;5017781;28;19931;-23
2022/07/08 02:00:08;;;;;;;;;;;;;;;;;;5000163;28;19922;-23
2022/07/08 02:02:39;;;;;;;;;;;;;;;;;;5000188;28;19909;-23
2022/07/08 02:05:06;;;;;;;;;;;;;;;;;;5017258;28;19913;-23
2022/07/08 02:07:34;;;;;;;;;;;;;;;;;;5017905;28;19909;-23
2022/07/08 02:10:00;;;;;;;;;;;;;;;;;;4999573;28;19918;-23
2022/07/08 02:15:19;;;;;;;;;;;;;;;;;;5017541;28;19933;-22
2022/07/08 02:17:47;;;;;;;;;;;;;;;;;;5017178;28;19924;-23
2022/07/08 02:22:58;;;;;;;;;;;;;;;;;;5018932;28;19931;-23
2022/07/08 02:25:25;;;;;;;;;;;;;;;;;;5000487;28;19913;-23
2022/07/08 02:30:52;;;;;;;;;;;;;;;;;;5017647;28;19928;-23
2022/07/08 02:33:19;;;;;;;;;;;;;;;;;;5018083;28;19941;-23
2022/07/08 02:35:49;;;;;;;;;;;;;;;;;;4999386;28;19920;-22
2022/07/08 02:38:33;;;;;;;;;;;;;;;;;;5004194;28;20362;-23
2022/07/08 02:41:01;;;;;;;;;;;;;;;;;;5020643;28;19909;-22
2022/07/08 02:43:36;;;;;;;;;;;;;;;;;;5020887;28;19914;-22
2022/07/08 02:46:03;;;;;;;;;;;;;;;;;;5021098;28;19921;-23
2022/07/08 02:48:29;;;;;;;;;;;;;;;;;;5020888;28;19924;-23
2022/07/08 02:50:57;;;;;;;;;;;;;;;;;;5020974;28;19910;-25
2022/07/08 02:53:26;;;;;;;;;;;;;;;;;;5021716;28;19917;-23
2022/07/08 02:58:43;;;;;;;;;;;;;;;;;;5013796;28;19940;-22
2022/07/08 03:04:15;;;;;;;;;;;;;;;;;;5022065;28;19981;-23
2022/07/08 03:15:04;;;;;;;;;;;;;;;;;;5021038;28;20261;-22
2022/07/08 03:17:31;;;;;;;;;;;;;;;;;;5020340;28;19958;-22
2022/07/08 03:19:58;;;;;;;;;;;;;;;;;;5020004;28;19922;-23
2022/07/08 03:22:25;;;;;;;;;;;;;;;;;;5021774;28;19914;-23
2022/07/08 03:25:06;;;;;;;;;;;;;;;;;;5020190;28;20371;-23
2022/07/08 03:36:01;;;;;;;;;;;;;;;;;;5020983;28;19944;-23
2022/07/08 03:38:29;;;;;;;;;;;;;;;;;;5022028;28;20311;-23
2022/07/08 03:43:42;;;;;;;;;;;;;;;;;;5019849;28;19925;-23
2022/07/08 03:46:12;;;;;;;;;;;;;;;;;;5019824;28;20012;-23
2022/07/08 03:48:56;;;;;;;;;;;;;;;;;;5018929;28;20248;-23
2022/07/08 03:51:23;;;;;;;;;;;;;;;;;;5020415;28;20314;-23
2022/07/08 03:53:51;;;;;;;;;;;;;;;;;;5018772;28;19920;-23
2022/07/08 03:56:19;;;;;;;;;;;;;;;;;;5019941;28;19910;-23
2022/07/08 03:58:46;;;;;;;;;;;;;;;;;;5018848;28;19925;-23
2022/07/08 04:03:56;;;;;;;;;;;;;;;;;;5142118;22;19925;-22
2022/07/08 04:06:23;;;;;;;;;;;;;;;;;;5019478;28;19936;-24
2022/07/08 04:08:50;;;;;;;;;;;;;;;;;;5017527;28;19954;-24
2022/07/08 04:11:17;;;;;;;;;;;;;;;;;;5018233;28;19909;-24
2022/07/08 04:13:44;;;;;;;;;;;;;;;;;;5017467;28;19962;-24
2022/07/08 04:16:15;;;;;;;;;;;;;;;;;;5001038;28;20355;-24
2022/07/08 04:18:42;;;;;;;;;;;;;;;;;;5001525;28;19921;-24
2022/07/08 04:21:09;;;;;;;;;;;;;;;;;;5018380;28;19936;-24
2022/07/08 04:23:37;;;;;;;;;;;;;;;;;;5018461;28;19924;-24
2022/07/08 04:26:04;;;;;;;;;;;;;;;;;;5018505;28;19909;-24
2022/07/08 04:28:31;;;;;;;;;;;;;;;;;;5018776;28;20288;-24
2022/07/08 04:30:58;;;;;;;;;;;;;;;;;;5018347;28;20391;-24
2022/07/08 04:33:26;;;;;;;;;;;;;;;;;;5017054;28;19913;-24
2022/07/08 04:35:53;;;;;;;;;;;;;;;;;;5017857;28;19996;-24
2022/07/08 04:38:22;;;;;;;;;;;;;;;;;;5018250;28;19940;-24
2022/07/08 04:40:49;;;;;;;;;;;;;;;;;;5018381;28;19973;-24
2022/07/08 04:43:16;;;;;;;;;;;;;;;;;;5000858;28;20255;-24
2022/07/08 04:45:47;;;;;;;;;;;;;;;;;;5018048;28;19913;-24
2022/07/08 04:48:15;;;;;;;;;;;;;;;;;;5018241;28;19910;-25
2022/07/08 04:50:43;;;;;;;;;;;;;;;;;;5018204;28;20355;-25
2022/07/08 04:53:11;;;;;;;;;;;;;;;;;;5017488;28;19913;-25
2022/07/08 04:55:38;;;;;;;;;;;;;;;;;;5018016;28;19952;-25
2022/07/08 04:58:06;;;;;;;;;;;;;;;;;;5017261;28;19972;-24
2022/07/08 05:00:34;;;;;;;;;;;;;;;;;;5016096;28;20362;-25
2022/07/08 05:05:53;;;;;;;;;;;;;;;;;;4999027;28;19976;-26
2022/07/08 05:08:21;;;;;;;;;;;;;;;;;;4998371;28;20212;-24
2022/07/08 05:10:58;;;;;;;;;;;;;;;;;;4998712;28;19957;-24
2022/07/08 05:13:28;;;;;;;;;;;;;;;;;;4998976;28;19917;-24
2022/07/08 05:15:56;;;;;;;;;;;;;;;;;;4999789;28;19913;-24
2022/07/08 05:21:18;;;;;;;;;;;;;;;;;;5000022;28;19925;-24
2022/07/08 05:23:50;;;;;;;;;;;;;;;;;;5000571;28;19973;-24
2022/07/08 05:26:20;;;;;;;;;;;;;;;;;;5000114;28;19913;-24
2022/07/08 05:28:48;;;;;;;;;;;;;;;;;;4982641;28;19978;-24
2022/07/08 05:31:15;;;;;;;;;;;;;;;;;;4982348;28;19914;-24
2022/07/08 05:36:39;;;;;;;;;;;;;;;;;;4998680;28;20040;-25
2022/07/08 05:39:09;;;;;;;;;;;;;;;;;;4999241;28;19917;-24
2022/07/08 05:41:41;;;;;;;;;;;;;;;;;;4981106;28;19920;-24
2022/07/08 05:52:41;;;;;;;;;;;;;;;;;;4999261;28;19921;-24
2022/07/08 05:55:12;;;;;;;;;;;;;;;;;;4997891;28;19914;-24
2022/07/08 06:00:27;;;;;;;;;;;;;;;;;;4995559;28;19964;-23
2022/07/08 06:02:54;;;;;;;;;;;;;;;;;;4994211;28;19914;-24
2022/07/08 06:05:23;;;;;;;;;;;;;;;;;;4994554;28;19921;-23
2022/07/08 06:07:50;;;;;;;;;;;;;;;;;;4995773;28;19921;-23
2022/07/08 06:10:21;;;;;;;;;;;;;;;;;;4995784;28;19914;-24
2022/07/08 06:12:50;;;;;;;;;;;;;;;;;;4998325;28;20182;-23
2022/07/08 06:15:17;;;;;;;;;;;;;;;;;;4998542;28;20004;-24
2022/07/08 06:17:46;;;;;;;;;;;;;;;;;;4997791;28;19906;-24
2022/07/08 06:20:15;;;;;;;;;;;;;;;;;;4998848;28;19914;-24
2022/07/08 06:22:43;;;;;;;;;;;;;;;;;;4997573;28;19914;-23
2022/07/08 06:25:11;;;;;;;;;;;;;;;;;;4998886;28;19914;-23
2022/07/08 06:27:39;;;;;;;;;;;;;;;;;;4998708;28;20455;-23
2022/07/08 06:30:07;;;;;;;;;;;;;;;;;;4998534;28;19968;-23
2022/07/08 06:35:28;;;;;;;;;;;;;;;;;;5001529;28;20104;-23
2022/07/08 06:37:57;;;;;;;;;;;;;;;;;;5001470;28;20073;-23
2022/07/08 06:40:25;;;;;;;;;;;;;;;;;;5001280;28;19909;-23
2022/07/08 06:42:54;;;;;;;;;;;;;;;;;;5002958;28;20413;-23
2022/07/08 06:45:31;;;;;;;;;;;;;;;;;;5001628;28;19921;-24
2022/07/08 06:47:59;;;;;;;;;;;;;;;;;;5000362;28;19913;-24
2022/07/08 06:50:44;;;;;;;;;;;;;;;;;;5002303;28;19914;-24
2022/07/08 06:53:20;;;;;;;;;;;;;;;;;;5003071;28;20341;-24
2022/07/08 06:58:24;;;;;;;;;;;;;;;;;;5342613;23;20344;-25
2022/07/08 07:15:01;;;;;;;;;;;;;;;;;;4408743;28;19928;-25
2022/07/08 07:17:28;;;;;;;;;;;;;;;;;;5000923;28;19914;-25
2022/07/08 07:20:01;;;;;;;;;;;;;;;;;;5000041;28;19914;-25
2022/07/08 07:22:32;;;;;;;;;;;;;;;;;;4999208;28;19935;-25
2022/07/08 07:25:00;;;;;;;;;;;;;;;;;;5002153;28;20259;-26
2022/07/08 07:27:30;;;;;;;;;;;;;;;;;;5000202;28;19977;-25
2022/07/08 07:30:03;;;;;;;;;;;;;;;;;;4999275;28;20323;-26
2022/07/08 07:32:33;;;;;;;;;;;;;;;;;;5001339;28;20320;-25
2022/07/08 07:35:02;;;;;;;;;;;;;;;;;;5002189;28;20241;-25
2022/07/08 07:37:42;;;;;;;;;;;;;;;;;;5002144;28;19928;-25
2022/07/08 07:40:26;;;;;;;;;;;;;;;;;;5001922;28;20268;-26
2022/07/08 07:42:55;;;;;;;;;;;;;;;;;;5001637;28;19917;-26
2022/07/08 07:45:23;;;;;;;;;;;;;;;;;;5001953;28;19921;-25
2022/07/08 07:48:00;;;;;;;;;;;;;;;;;;5000579;28;20013;-25
2022/07/08 07:50:35;;;;;;;;;;;;;;;;;;5002078;28;19917;-25
2022/07/08 07:55:59;;;;;;;;;;;;;;;;;;5000292;28;19924;-25
2022/07/08 07:58:27;;;;;;;;;;;;;;;;;;4999722;28;19941;-26
2022/07/08 08:00:58;;;;;;;;;;;;;;;;;;5000821;28;19920;-25
2022/07/08 08:03:27;;;;;;;;;;;;;;;;;;4999014;28;19944;-24
2022/07/08 08:06:00;;;;;;;;;;;;;;;;;;5000079;28;19924;-25
2022/07/08 08:08:34;;;;;;;;;;;;;;;;;;5000730;28;19975;-24
2022/07/08 08:11:02;;;;;;;;;;;;;;;;;;4998122;28;19973;-25
2022/07/08 08:13:38;;;;;;;;;;;;;;;;;;4999115;28;19917;-24
2022/07/08 08:16:12;;;;;;;;;;;;;;;;;;4998076;28;19977;-25
2022/07/08 08:18:40;;;;;;;;;;;;;;;;;;5000173;28;19922;-25
2022/07/08 08:21:16;;;;;;;;;;;;;;;;;;5000559;28;19913;-25
2022/07/08 08:23:51;;;;;;;;;;;;;;;;;;4999488;28;19914;-24
2022/07/08 08:26:21;;;;;;;;;;;;;;;;;;4999222;28;19936;-24
2022/07/08 08:28:52;;;;;;;;;;;;;;;;;;5000589;28;19917;-24
2022/07/08 08:31:22;;;;;;;;;;;;;;;;;;5001367;28;19914;-24
2022/07/08 08:50:57;;;;;;;;;;;;;;;;;;4998450;28;20326;-24
2022/07/08 08:53:40;;;;;;;;;;;;;;;;;;4983045;28;19942;-24
2022/07/08 08:56:11;;;;;;;;;;;;;;;;;;4999565;28;19925;-24
2022/07/08 08:58:48;;;;;;;;;;;;;;;;;;4981720;28;20274;-24
2022/07/08 09:04:14;;;;;;;;;;;;;;;;;;5007305;23;19992;-25
2022/07/08 09:06:59;;;;;;;;;;;;;;;;;;5000032;28;19918;-25
2022/07/08 09:09:50;;;;;;;;;;;;;;;;;;4999594;28;19910;-25
2022/07/08 09:15:11;;;;;;;;;;;;;;;;;;4979317;28;20436;-25
2022/07/08 09:29:07;;;;;;;;;;;;;;;;;;4999293;28;20267;-25
2022/07/08 09:34:30;;;;;;;;;;;;;;;;;;4979895;28;19949;-25
2022/07/08 09:37:01;;;;;;;;;;;;;;;;;;4979352;28;19933;-25
2022/07/08 09:39:33;;;;;;;;;;;;;;;;;;4978798;28;19985;-25
2022/07/08 09:44:46;;;;;;;;;;;;;;;;;;5018289;28;19926;-25
2022/07/08 09:47:18;;;;;;;;;;;;;;;;;;5018736;28;19913;-25
2022/07/08 09:49:45;;;;;;;;;;;;;;;;;;5019596;28;19941;-25
2022/07/08 09:52:14;;;;;;;;;;;;;;;;;;5018883;28;20005;-25
2022/07/08 09:54:48;;;;;;;;;;;;;;;;;;5017927;28;19913;-25
2022/07/08 10:00:07;;;;;;;;;;;;;;;;;;5018554;28;20354;-25
2022/07/08 10:02:55;;;;;;;;;;;;;;;;;;5018687;28;19940;-25
2022/07/08 10:05:24;;;;;;;;;;;;;;;;;;5017706;28;19917;-24
2022/07/08 10:07:54;;;;;;;;;;;;;;;;;;5018458;28;19953;-24
2022/07/08 10:10:24;;;;;;;;;;;;;;;;;;4999705;28;19917;-24
2022/07/08 10:12:53;;;;;;;;;;;;;;;;;;4998811;28;19913;-24
2022/07/08 10:15:24;;;;;;;;;;;;;;;;;;5018604;28;19979;-24
2022/07/08 10:18:12;;;;;;;;;;;;;;;;;;5018227;28;19992;-24
2022/07/08 10:23:34;;;;;;;;;;;;;;;;;;5017878;28;19929;-24
2022/07/08 10:26:03;;;;;;;;;;;;;;;;;;5018587;28;19924;-24
2022/07/08 10:31:22;;;;;;;;;;;;;;;;;;5018140;28;19928;-24
2022/07/08 10:33:50;;;;;;;;;;;;;;;;;;5000602;28;19961;-24
2022/07/08 10:36:19;;;;;;;;;;;;;;;;;;5017771;28;19918;-23
2022/07/08 10:38:47;;;;;;;;;;;;;;;;;;5017637;28;19918;-24
2022/07/08 10:44:09;;;;;;;;;;;;;;;;;;5018865;28;19968;-24
2022/07/08 10:46:39;;;;;;;;;;;;;;;;;;5018478;28;19913;-24
2022/07/08 10:49:10;;;;;;;;;;;;;;;;;;5018006;28;19914;-25
2022/07/08 10:51:38;;;;;;;;;;;;;;;;;;5000185;28;19932;-25
2022/07/08 10:54:06;;;;;;;;;;;;;;;;;;5017047;28;19920;-26
2022/07/08 10:56:39;;;;;;;;;;;;;;;;;;5016474;28;19922;-26
2022/07/08 10:59:08;;;;;;;;;;;;;;;;;;5020291;28;19996;-25
2022/07/08 11:04:27;;;;;;;;;;;;;;;;;;5021284;28;19996;-26
2022/07/08 11:07:04;;;;;;;;;;;;;;;;;;5021054;28;19936;-25
2022/07/08 11:09:33;;;;;;;;;;;;;;;;;;5021472;28;19913;-25
2022/07/08 11:12:10;;;;;;;;;;;;;;;;;;5019784;28;19995;-25
2022/07/08 11:14:52;;;;;;;;;;;;;;;;;;5020168;28;20009;-25
2022/07/08 11:17:20;;;;;;;;;;;;;;;;;;5001942;28;20000;-25
2022/07/08 11:19:49;;;;;;;;;;;;;;;;;;5019510;28;19917;-25
2022/07/08 11:22:17;;;;;;;;;;;;;;;;;;5001976;28;20004;-25
2022/07/08 11:24:49;;;;;;;;;;;;;;;;;;5002548;28;19913;-25
2022/07/08 11:30:08;;;;;;;;;;;;;;;;;;5020646;28;19956;-25
2022/07/08 11:32:38;;;;;;;;;;;;;;;;;;5019694;28;19937;-24
2022/07/08 11:35:13;;;;;;;;;;;;;;;;;;5020410;28;20003;-25
2022/07/08 11:37:51;;;;;;;;;;;;;;;;;;5019888;28;20255;-25
2022/07/08 11:40:22;;;;;;;;;;;;;;;;;;5002192;28;19917;-26
2022/07/08 11:43:05;;;;;;;;;;;;;;;;;;5019089;28;21014;-24
2022/07/08 11:48:26;;;;;;;;;;;;;;;;;;5340089;22;20021;-22
2022/07/08 11:50:54;;;;;;;;;;;;;;;;;;4984212;28;19914;-23
2022/07/08 11:53:25;;;;;;;;;;;;;;;;;;4983475;28;19909;-23
2022/07/08 11:55:59;;;;;;;;;;;;;;;;;;4983511;28;20359;-22
2022/07/08 11:58:27;;;;;;;;;;;;;;;;;;5000453;28;20280;-22
2022/07/08 12:00:54;;;;;;;;;;;;;;;;;;5000196;28;19909;-22
2022/07/08 12:03:22;;;;;;;;;;;;;;;;;;4999665;28;19921;-22
2022/07/08 12:06:01;;;;;;;;;;;;;;;;;;5000835;28;19913;-22
2022/07/08 12:08:32;;;;;;;;;;;;;;;;;;5000831;28;20383;-23
2022/07/08 12:11:01;;;;;;;;;;;;;;;;;;5001352;28;19964;-23
2022/07/08 12:13:35;;;;;;;;;;;;;;;;;;4999917;28;19914;-22
2022/07/08 12:16:19;;;;;;;;;;;;;;;;;;4998381;28;19910;-22
2022/07/08 12:18:48;;;;;;;;;;;;;;;;;;4999693;28;19985;-23
2022/07/08 12:21:25;;;;;;;;;;;;;;;;;;4999749;28;19914;-22
2022/07/08 12:23:56;;;;;;;;;;;;;;;;;;4998840;28;20435;-23
2022/07/08 12:29:16;;;;;;;;;;;;;;;;;;5001970;28;19976;-23
2022/07/08 12:31:48;;;;;;;;;;;;;;;;;;5001036;28;19945;-22
2022/07/08 12:34:18;;;;;;;;;;;;;;;;;;5001326;28;20008;-22
2022/07/08 12:36:46;;;;;;;;;;;;;;;;;;5000282;28;19913;-22
2022/07/08 12:39:19;;;;;;;;;;;;;;;;;;4999734;28;20367;-22
2022/07/08 12:41:52;;;;;;;;;;;;;;;;;;5001083;28;19944;-22
2022/07/08 12:44:24;;;;;;;;;;;;;;;;;;5002712;28;20008;-22
2022/07/08 12:46:53;;;;;;;;;;;;;;;;;;4999493;28;19913;-22
2022/07/08 12:49:21;;;;;;;;;;;;;;;;;;5016420;28;20245;-22
2022/07/08 12:51:49;;;;;;;;;;;;;;;;;;5019000;28;19967;-22
2022/07/08 12:54:17;;;;;;;;;;;;;;;;;;5019173;28;19925;-22
2022/07/08 12:57:09;;;;;;;;;;;;;;;;;;5017944;28;19924;-22
2022/07/08 12:59:56;;;;;;;;;;;;;;;;;;5019390;28;19922;-22
2022/07/08 13:05:19;;;;;;;;;;;;;;;;;;5019224;28;20276;-20
2022/07/08 13:07:49;;;;;;;;;;;;;;;;;;5020289;28;19921;-21
2022/07/08 13:10:18;;;;;;;;;;;;;;;;;;5018470;28;19917;-21
2022/07/08 13:12:48;;;;;;;;;;;;;;;;;;5017797;28;19921;-21
2022/07/08 13:18:10;;;;;;;;;;;;;;;;;;5020491;28;19939;-21
2022/07/08 13:20:37;;;;;;;;;;;;;;;;;;5016890;28;19913;-21
2022/07/08 13:23:07;;;;;;;;;;;;;;;;;;5018152;28;19955;-21
2022/07/08 13:25:35;;;;;;;;;;;;;;;;;;5017791;28;19913;-22
2022/07/08 13:28:05;;;;;;;;;;;;;;;;;;5018621;28;19910;-22
2022/07/08 13:30:32;;;;;;;;;;;;;;;;;;5018652;28;20394;-23
2022/07/08 13:32:59;;;;;;;;;;;;;;;;;;5017964;28;20008;-23
2022/07/08 13:35:28;;;;;;;;;;;;;;;;;;5017508;28;19913;-23
2022/07/08 13:37:59;;;;;;;;;;;;;;;;;;5018000;28;19996;-23
2022/07/08 13:40:27;;;;;;;;;;;;;;;;;;5017017;28;19921;-23
2022/07/08 13:43:00;;;;;;;;;;;;;;;;;;5016827;28;22207;-22
2022/07/08 13:45:29;;;;;;;;;;;;;;;;;;5018676;28;19913;-22
2022/07/08 13:48:00;;;;;;;;;;;;;;;;;;5018377;28;20251;-22
2022/07/08 13:50:28;;;;;;;;;;;;;;;;;;5018138;28;19924;-22
2022/07/08 13:52:56;;;;;;;;;;;;;;;;;;5018259;28;19913;-23
2022/07/08 13:55:23;;;;;;;;;;;;;;;;;;5016618;28;19947;-22
2022/07/08 13:57:52;;;;;;;;;;;;;;;;;;5016119;28;19943;-22
2022/07/08 14:00:20;;;;;;;;;;;;;;;;;;5018232;28;19937;-23
2022/07/08 14:02:47;;;;;;;;;;;;;;;;;;5016629;28;20084;-23
2022/07/08 14:05:16;;;;;;;;;;;;;;;;;;5015847;28;20000;-23
2022/07/08 14:07:45;;;;;;;;;;;;;;;;;;5017450;28;19925;-23
2022/07/08 14:10:14;;;;;;;;;;;;;;;;;;5016479;28;20004;-23
2022/07/08 14:12:49;;;;;;;;;;;;;;;;;;5018770;28;19921;-27
2022/07/08 14:15:19;;;;;;;;;;;;;;;;;;5016834;28;19989;-22
2022/07/08 14:17:46;;;;;;;;;;;;;;;;;;4999591;28;19928;-23
2022/07/08 14:20:14;;;;;;;;;;;;;;;;;;5015968;28;19918;-22
2022/07/08 14:22:43;;;;;;;;;;;;;;;;;;5019210;28;19910;-23
2022/07/08 14:25:10;;;;;;;;;;;;;;;;;;5017306;28;19925;-22
2022/07/08 14:27:38;;;;;;;;;;;;;;;;;;5018199;28;19975;-22
2022/07/08 14:30:06;;;;;;;;;;;;;;;;;;5018754;28;19945;-22
2022/07/08 14:32:34;;;;;;;;;;;;;;;;;;5020726;28;19965;-22
2022/07/08 14:35:01;;;;;;;;;;;;;;;;;;5021398;28;19924;-23
2022/07/08 14:37:31;;;;;;;;;;;;;;;;;;5020319;28;19975;-23
2022/07/08 14:39:59;;;;;;;;;;;;;;;;;;5019544;28;20245;-23
2022/07/08 14:42:25;;;;;;;;;;;;;;;;;;5021529;28;19918;-23
2022/07/08 14:44:52;;;;;;;;;;;;;;;;;;5021563;28;20010;-22
2022/07/08 14:47:19;;;;;;;;;;;;;;;;;;5021196;28;19909;-22
2022/07/08 14:49:49;;;;;;;;;;;;;;;;;;5021872;28;19921;-22
2022/07/08 14:52:29;;;;;;;;;;;;;;;;;;5021038;28;19917;-21
2022/07/08 14:54:58;;;;;;;;;;;;;;;;;;5022571;28;19913;-22
2022/07/08 14:57:27;;;;;;;;;;;;;;;;;;5021834;28;19932;-22
2022/07/08 14:59:59;;;;;;;;;;;;;;;;;;5021747;28;19929;-23
2022/07/08 15:02:26;;;;;;;;;;;;;;;;;;5022250;28;19918;-22
2022/07/08 15:04:56;;;;;;;;;;;;;;;;;;5021640;28;19917;-22
2022/07/08 15:07:23;;;;;;;;;;;;;;;;;;5020398;28;20040;-22
2022/07/08 15:09:50;;;;;;;;;;;;;;;;;;5022211;28;19936;-23
2022/07/08 15:12:19;;;;;;;;;;;;;;;;;;5022549;28;19913;-23
2022/07/08 15:14:48;;;;;;;;;;;;;;;;;;5022073;28;20333;-22
2022/07/08 15:17:17;;;;;;;;;;;;;;;;;;5022028;28;19918;-22
2022/07/08 15:19:50;;;;;;;;;;;;;;;;;;5022845;28;20205;-23
2022/07/08 15:22:20;;;;;;;;;;;;;;;;;;5021891;28;20344;-23
2022/07/08 15:24:55;;;;;;;;;;;;;;;;;;5021761;28;19917;-23
2022/07/08 15:27:23;;;;;;;;;;;;;;;;;;5019621;28;19909;-22
2022/07/08 15:29:50;;;;;;;;;;;;;;;;;;5021356;28;19913;-22
2022/07/08 15:32:20;;;;;;;;;;;;;;;;;;5021602;28;19909;-23
2022/07/08 15:34:47;;;;;;;;;;;;;;;;;;5020024;28;19924;-23
2022/07/08 15:37:15;;;;;;;;;;;;;;;;;;5020962;28;19913;-23
2022/07/08 15:39:44;;;;;;;;;;;;;;;;;;5021012;28;19918;-22
2022/07/08 15:42:14;;;;;;;;;;;;;;;;;;5019837;28;19909;-21
2022/07/08 15:44:42;;;;;;;;;;;;;;;;;;5019328;28;19914;-23
2022/07/08 15:47:11;;;;;;;;;;;;;;;;;;5020128;28;19931;-22
2022/07/08 15:49:39;;;;;;;;;;;;;;;;;;5019827;28;19977;-23
2022/07/08 15:52:07;;;;;;;;;;;;;;;;;;5021767;28;19945;-23
2022/07/08 15:54:36;;;;;;;;;;;;;;;;;;5020471;28;20229;-23
2022/07/08 15:57:03;;;;;;;;;;;;;;;;;;5019331;28;19949;-22
2022/07/08 15:59:30;;;;;;;;;;;;;;;;;;5020872;28;19932;-23
2022/07/08 16:01:58;;;;;;;;;;;;;;;;;;5019183;28;19909;-22
2022/07/08 16:04:26;;;;;;;;;;;;;;;;;;5019858;28;20374;-23
2022/07/08 16:06:54;;;;;;;;;;;;;;;;;;5021137;28;19914;-22
2022/07/08 16:09:21;;;;;;;;;;;;;;;;;;5020757;28;19914;-23
2022/07/08 16:11:50;;;;;;;;;;;;;;;;;;5019629;28;19917;-23
2022/07/08 16:14:21;;;;;;;;;;;;;;;;;;5020214;28;20009;-22
2022/07/08 16:16:49;;;;;;;;;;;;;;;;;;5019157;28;19921;-23
2022/07/08 16:22:02;;;;;;;;;;;;;;;;;;5020491;28;19917;-22
2022/07/08 16:24:30;;;;;;;;;;;;;;;;;;5020320;28;19924;-23
2022/07/08 16:26:58;;;;;;;;;;;;;;;;;;5017892;28;19960;-23
2022/07/08 16:29:25;;;;;;;;;;;;;;;;;;5018024;28;19921;-23
2022/07/08 16:31:53;;;;;;;;;;;;;;;;;;5019564;28;19979;-23
2022/07/08 16:34:21;;;;;;;;;;;;;;;;;;5020392;28;19940;-23
2022/07/08 16:36:48;;;;;;;;;;;;;;;;;;5018737;28;20243;-22
2022/07/08 16:39:21;;;;;;;;;;;;;;;;;;5018715;28;20260;-22
2022/07/08 16:41:48;;;;;;;;;;;;;;;;;;5019027;28;19913;-22
2022/07/08 16:44:15;;;;;;;;;;;;;;;;;;5018217;28;20009;-23
2022/07/08 16:46:43;;;;;;;;;;;;;;;;;;5018013;28;19960;-22
2022/07/08 16:49:11;;;;;;;;;;;;;;;;;;5016982;28;19918;-22
2022/07/08 17:08:37;;;;;;;;;;;;;;;;;;5308335;23;20295;-20
2022/07/08 17:11:06;;;;;;;;;;;;;;;;;;5018821;28;19963;-20
2022/07/08 17:13:33;;;;;;;;;;;;;;;;;;5017228;28;19920;-21
2022/07/08 17:16:00;;;;;;;;;;;;;;;;;;5018862;28;19909;-19
2022/07/08 17:18:28;;;;;;;;;;;;;;;;;;5014010;28;19922;-19
2022/07/08 17:20:56;;;;;;;;;;;;;;;;;;4997835;28;19949;-21
2022/07/08 17:23:23;;;;;;;;;;;;;;;;;;4998845;28;19917;-19
2022/07/08 17:25:50;;;;;;;;;;;;;;;;;;4998670;28;19921;-18
2022/07/08 17:28:18;;;;;;;;;;;;;;;;;;4998247;28;20012;-20
2022/07/08 17:30:45;;;;;;;;;;;;;;;;;;4999318;28;19909;-20
2022/07/08 17:33:15;;;;;;;;;;;;;;;;;;5014284;28;19914;-20
2022/07/08 17:35:43;;;;;;;;;;;;;;;;;;4998653;28;20005;-20
2022/07/08 17:38:10;;;;;;;;;;;;;;;;;;4997452;28;19910;-20
2022/07/08 17:40:37;;;;;;;;;;;;;;;;;;5012951;28;20349;-20
2022/07/08 17:43:04;;;;;;;;;;;;;;;;;;5013257;28;19910;-20
2022/07/08 17:45:32;;;;;;;;;;;;;;;;;;4998265;28;19925;-20
2022/07/08 17:47:59;;;;;;;;;;;;;;;;;;4997774;28;19914;-21
2022/07/08 17:50:26;;;;;;;;;;;;;;;;;;4997800;28;20252;-20
2022/07/08 17:52:53;;;;;;;;;;;;;;;;;;4997756;28;19914;-20
2022/07/08 17:55:20;;;;;;;;;;;;;;;;;;4998018;28;20281;-20
2022/07/08 17:57:47;;;;;;;;;;;;;;;;;;5012848;28;19996;-20
2022/07/08 18:00:15;;;;;;;;;;;;;;;;;;4997958;28;19928;-20
2022/07/08 18:02:42;;;;;;;;;;;;;;;;;;4997894;28;19961;-20
2022/07/08 18:05:15;;;;;;;;;;;;;;;;;;4997779;28;19924;-20
2022/07/08 18:07:42;;;;;;;;;;;;;;;;;;5015207;28;19985;-20
2022/07/08 18:10:10;;;;;;;;;;;;;;;;;;5002039;28;19913;-19
2022/07/08 18:12:38;;;;;;;;;;;;;;;;;;5001526;28;19917;-20
2022/07/08 18:15:05;;;;;;;;;;;;;;;;;;5000636;28;20005;-19
2022/07/08 18:17:32;;;;;;;;;;;;;;;;;;5001765;28;19938;-21
2022/07/08 18:20:04;;;;;;;;;;;;;;;;;;5001438;28;19953;-20
2022/07/08 18:22:32;;;;;;;;;;;;;;;;;;5001054;28;20400;-20
2022/07/08 18:24:59;;;;;;;;;;;;;;;;;;5001350;28;19957;-20
2022/07/08 18:27:26;;;;;;;;;;;;;;;;;;5000656;28;19914;-19
2022/07/08 18:29:53;;;;;;;;;;;;;;;;;;5000510;28;19925;-20
2022/07/08 18:32:20;;;;;;;;;;;;;;;;;;5001740;28;19917;-20
2022/07/08 18:34:48;;;;;;;;;;;;;;;;;;5001407;28;19913;-20
2022/07/08 18:37:15;;;;;;;;;;;;;;;;;;5000823;28;20009;-19
2022/07/08 18:39:42;;;;;;;;;;;;;;;;;;5002616;28;19917;-19
2022/07/08 18:42:09;;;;;;;;;;;;;;;;;;5001486;28;20329;-19
2022/07/08 18:44:37;;;;;;;;;;;;;;;;;;5001029;28;20445;-20
2022/07/08 18:47:06;;;;;;;;;;;;;;;;;;5000958;28;19910;-20
2022/07/08 18:49:33;;;;;;;;;;;;;;;;;;5001544;28;20260;-19
2022/07/08 18:52:00;;;;;;;;;;;;;;;;;;5000689;28;19961;-19
2022/07/08 18:54:28;;;;;;;;;;;;;;;;;;5001136;28;20016;-19
2022/07/08 18:56:55;;;;;;;;;;;;;;;;;;5000321;28;20233;-19
2022/07/08 18:59:23;;;;;;;;;;;;;;;;;;5000953;28;20013;-20
2022/07/08 19:01:50;;;;;;;;;;;;;;;;;;5001212;28;19909;-20
2022/07/08 19:04:17;;;;;;;;;;;;;;;;;;5001153;28;19924;-19
2022/07/08 19:06:44;;;;;;;;;;;;;;;;;;5001386;28;20001;-20
2022/07/08 19:09:10;;;;;;;;;;;;;;;;;;5000359;28;19926;-20
2022/07/08 19:11:38;;;;;;;;;;;;;;;;;;5001054;28;20006;-21
2022/07/08 19:14:05;;;;;;;;;;;;;;;;;;5016122;28;20269;-20
2022/07/08 19:16:31;;;;;;;;;;;;;;;;;;5000852;28;19910;-20
2022/07/08 19:18:59;;;;;;;;;;;;;;;;;;4999058;28;19917;-19
2022/07/08 19:21:26;;;;;;;;;;;;;;;;;;5015701;28;19925;-20
2022/07/08 19:23:53;;;;;;;;;;;;;;;;;;5000628;28;19949;-20
2022/07/08 19:26:21;;;;;;;;;;;;;;;;;;5015839;28;19914;-20
2022/07/08 19:28:48;;;;;;;;;;;;;;;;;;5000215;28;19914;-20
2022/07/08 19:31:15;;;;;;;;;;;;;;;;;;5000453;28;19964;-21
2022/07/08 19:33:42;;;;;;;;;;;;;;;;;;5014810;28;19957;-21
2022/07/08 19:38:54;;;;;;;;;;;;;;;;;;5000274;28;20418;-21
2022/07/08 19:41:21;;;;;;;;;;;;;;;;;;5000158;28;19961;-20
2022/07/08 19:43:50;;;;;;;;;;;;;;;;;;4999852;28;19914;-20
2022/07/08 19:46:26;;;;;;;;;;;;;;;;;;5015001;28;19914;-20
2022/07/08 19:48:55;;;;;;;;;;;;;;;;;;5014865;28;20340;-19
2022/07/08 19:51:22;;;;;;;;;;;;;;;;;;5014885;28;19913;-20
2022/07/08 19:53:50;;;;;;;;;;;;;;;;;;4999597;28;19913;-20
2022/07/08 19:56:18;;;;;;;;;;;;;;;;;;5015394;28;19996;-20
2022/07/08 19:58:46;;;;;;;;;;;;;;;;;;4999634;28;19929;-19
2022/07/08 20:01:13;;;;;;;;;;;;;;;;;;4999431;28;19910;-21
2022/07/08 20:03:41;;;;;;;;;;;;;;;;;;5014371;28;19921;-20
2022/07/08 20:06:09;;;;;;;;;;;;;;;;;;5014672;28;19925;-20
2022/07/08 20:08:36;;;;;;;;;;;;;;;;;;4998804;28;19929;-19
2022/07/08 20:11:03;;;;;;;;;;;;;;;;;;4999518;28;19969;-32
2022/07/08 20:13:31;;;;;;;;;;;;;;;;;;4999368;28;20005;-20
2022/07/08 20:15:58;;;;;;;;;;;;;;;;;;4999120;28;19937;-20
2022/07/08 20:18:26;;;;;;;;;;;;;;;;;;5014197;28;19932;-20
2022/07/08 20:20:53;;;;;;;;;;;;;;;;;;4999559;28;19968;-20
2022/07/08 20:23:20;;;;;;;;;;;;;;;;;;4999309;28;20008;-20
2022/07/08 20:25:47;;;;;;;;;;;;;;;;;;5015011;28;19926;-20
2022/07/08 20:28:14;;;;;;;;;;;;;;;;;;4998695;28;20300;-20